Austinville, Pennsylvania
Current Conditions -  °F | °C
As of 2:53 PM on Monday 24 Nov 2014 (Local Time) from KELM Reporting Station
Broken Clouds Broken Clouds  
Wind Chill: 69°   Ceiling: 9000
Heat Index: 69°   Visibility: 10mi
Dew Point: 51°   Wind: 20mph
Humidity: 53%   Direction: 200°SSW
Pressure: 29.39"   Gusts: 28mph
Location:  41.8495°N, 76.7925°W
Report Text: KELM 241953Z 20017G24KT 10SM BKN090 21/11 A2939 RMK AO2 PK WND 21028/1937 SLP948 T02060106
Loading
Personal Weather Stations






























Interactive Weather Map New forecast layout! Learn more

10-Day Weather Forecast

Advertisements
Track Severe Weather on mobile